PASV/SVW METAR and TAF weather

Enter ICAO airport designator
Station Type Date Time Source
PASV METAR 2020/06/03 20:55 UTC NOAA

PASV 032055Z AUTO VRB03KT 10SM FEW046 BKN070 11/02 A2991 RMK AO2 SLP129 T01130017 52007


Station Type Date Time Source
PASV Decoded METAR 2020/06/03 20:55 UTC NOAA

Sparrevohn Airways Facilities Sector, AK, United States (PASV) 61-06N 155-34W
Jun 03, 2020 - 04:55 PM EDT / 2020.06.03 2055 UTC
Wind: Variable at 3 MPH (3 KT):0
Visibility: 10 mile(s):0
Sky conditions: mostly cloudy
Temperature: 52.3 F (11.3 C)
Dew Point: 35.1 F (1.7 C)
Relative Humidity: 51%
Pressure (altimeter): 29.91 in. Hg (1012 hPa)
Pressure tendency: 0.02 inches (0.7 hPa) higher than three hours ago
ob: PASV 032055Z AUTO VRB03KT 10SM FEW046 BKN070 11/02 A2991 RMK AO2 SLP129 T01130017 52007
cycle: 21

Station Type Date Time Source
PASV TAF 2012/01/12 14:57 UTC NOAA

TAF
AMD PASV 1214/1320 33010G15KT 4800 -SN BLSN SCT003 SCT110 QNH2984INS
BECMG 1221/1222 VRB06KT 9999 NSW FEW010 SCT110 QNH3000INS LIMITED METWATCH TM25/1300Z TM37/1315Z
AMD 121453

Example: see airport list